Time;durP1;ratioP1;P1;durP2;ratioP2;P2;SDS_P1;SDS_P2;PMS_P1;PMS_P2;Temp;Humidity;BMP_temperature;BMP_pressure;BME280_temperature;BME280_humidity;BME280_pressure;Samples;Min_cycle;Max_cycle;Signal;HPM_P1;HPM_P2
2022/01/02 00:00:19;;;;;;;4.00;2.05;;;;;;;;;;4992646;28;20074;-40
2022/01/02 00:02:49;;;;;;;6.78;2.33;;;;;;;;;;4991901;28;20452;-40
2022/01/02 00:05:15;;;;;;;5.50;2.17;;;;;;;;;;4982957;28;20054;-39
2022/01/02 00:07:50;;;;;;;6.32;2.50;;;;;;;;;;4980610;28;20030;-38
2022/01/02 00:10:18;;;;;;;8.10;3.03;;;;;;;;;;4972985;28;20423;-43
2022/01/02 00:12:49;;;;;;;6.53;2.42;;;;;;;;;;4973056;28;20035;-42
2022/01/02 00:15:16;;;;;;;7.30;2.22;;;;;;;;;;4973234;28;20019;-42
2022/01/02 00:17:43;;;;;;;7.43;3.30;;;;;;;;;;4973067;28;20023;-39
2022/01/02 00:20:12;;;;;;;8.02;2.63;;;;;;;;;;4972747;28;20033;-40
2022/01/02 00:22:40;;;;;;;7.78;2.83;;;;;;;;;;4973398;28;20104;-40
2022/01/02 00:25:13;;;;;;;10.43;2.90;;;;;;;;;;4974819;28;20026;-39
2022/01/02 00:27:39;;;;;;;7.35;2.70;;;;;;;;;;4973330;28;20067;-41
2022/01/02 00:30:06;;;;;;;4.85;2.63;;;;;;;;;;4980335;28;20398;-40
2022/01/02 00:32:33;;;;;;;6.20;2.60;;;;;;;;;;4986056;28;20049;-43
2022/01/02 00:35:00;;;;;;;6.35;2.65;;;;;;;;;;4977496;28;20412;-39
2022/01/02 00:37:26;;;;;;;6.13;2.35;;;;;;;;;;4972919;28;20058;-39
2022/01/02 00:39:52;;;;;;;5.55;3.30;;;;;;;;;;4971222;28;20050;-41
2022/01/02 00:42:25;;;;;;;9.57;2.78;;;;;;;;;;4979864;28;20022;-39
2022/01/02 00:44:58;;;;;;;9.07;2.75;;;;;;;;;;4992398;28;20050;-43
2022/01/02 00:47:31;;;;;;;7.55;3.05;;;;;;;;;;4976729;28;20026;-38
2022/01/02 00:50:05;;;;;;;7.45;3.03;;;;;;;;;;4972723;28;20106;-39
2022/01/02 00:52:34;;;;;;;10.40;3.00;;;;;;;;;;4980137;28;20033;-39
2022/01/02 00:55:00;;;;;;;4.35;3.13;;;;;;;;;;4988951;28;20072;-42
2022/01/02 00:57:31;;;;;;;6.38;3.22;;;;;;;;;;4992354;28;20034;-40
2022/01/02 01:00:00;;;;;;;6.90;2.55;;;;;;;;;;4973364;28;20085;-41
2022/01/02 01:02:29;;;;;;;16.23;3.53;;;;;;;;;;4972306;28;20087;-40
2022/01/02 01:04:56;;;;;;;5.70;2.42;;;;;;;;;;4961859;28;20019;-42
2022/01/02 01:07:23;;;;;;;6.75;2.75;;;;;;;;;;4972367;28;20474;-39
2022/01/02 01:09:49;;;;;;;6.85;2.85;;;;;;;;;;4972516;28;20031;-39
2022/01/02 01:12:17;;;;;;;9.50;2.90;;;;;;;;;;4980157;28;20037;-39
2022/01/02 01:14:43;;;;;;;5.90;2.55;;;;;;;;;;4985124;28;20061;-40
2022/01/02 01:17:10;;;;;;;6.55;2.90;;;;;;;;;;4991824;28;20673;-40
2022/01/02 01:19:36;;;;;;;8.23;2.85;;;;;;;;;;4984189;28;20026;-40
2022/01/02 01:22:02;;;;;;;8.07;2.72;;;;;;;;;;4976073;28;20545;-39
2022/01/02 01:24:29;;;;;;;4.43;2.78;;;;;;;;;;4972743;28;20026;-40
2022/01/02 01:26:56;;;;;;;5.25;2.85;;;;;;;;;;4973044;28;20034;-40
2022/01/02 01:29:22;;;;;;;7.43;3.05;;;;;;;;;;4972587;28;20131;-40
2022/01/02 01:31:48;;;;;;;7.13;3.45;;;;;;;;;;4977407;28;20087;-40
2022/01/02 01:34:14;;;;;;;6.43;2.97;;;;;;;;;;4982787;28;20037;-38
2022/01/02 01:36:40;;;;;;;6.70;3.47;;;;;;;;;;4974020;28;20050;-42
2022/01/02 01:39:06;;;;;;;5.53;2.90;;;;;;;;;;4971994;28;20379;-39
2022/01/02 01:41:35;;;;;;;9.38;2.97;;;;;;;;;;4972064;28;20109;-42
2022/01/02 01:44:25;;;;;;;6.78;3.35;;;;;;;;;;4974418;28;20029;-39
2022/01/02 01:46:55;;;;;;;7.82;3.47;;;;;;;;;;4975640;28;20027;-40
2022/01/02 01:49:27;;;;;;;6.97;2.72;;;;;;;;;;4975431;28;20027;-40
2022/01/02 01:51:54;;;;;;;5.10;2.80;;;;;;;;;;4980682;28;20507;-40
2022/01/02 01:54:20;;;;;;;6.45;3.55;;;;;;;;;;4978893;28;20041;-41
2022/01/02 01:56:47;;;;;;;6.03;3.67;;;;;;;;;;4975498;28;20065;-42
2022/01/02 01:59:15;;;;;;;4.40;3.03;;;;;;;;;;4975074;28;20062;-39
2022/01/02 02:01:41;;;;;;;5.28;3.05;;;;;;;;;;4975176;28;20110;-40
2022/01/02 02:04:07;;;;;;;6.57;3.67;;;;;;;;;;4977146;28;20054;-40
2022/01/02 02:06:35;;;;;;;7.05;3.78;;;;;;;;;;4984710;28;20108;-40
2022/01/02 02:09:02;;;;;;;7.95;4.13;;;;;;;;;;4985151;28;20045;-39
2022/01/02 02:11:29;;;;;;;8.40;4.10;;;;;;;;;;4978267;28;20034;-40
2022/01/02 02:13:55;;;;;;;14.82;5.78;;;;;;;;;;4985878;28;20029;-40
2022/01/02 02:16:22;;;;;;;9.75;4.63;;;;;;;;;;4974869;28;20030;-41
2022/01/02 02:18:48;;;;;;;13.63;5.35;;;;;;;;;;4974747;28;20127;-41
2022/01/02 02:21:14;;;;;;;10.85;5.10;;;;;;;;;;4974499;28;20521;-41
2022/01/02 02:23:42;;;;;;;12.65;6.07;;;;;;;;;;4975163;28;20512;-41
2022/01/02 02:26:09;;;;;;;12.38;6.38;;;;;;;;;;4993190;28;20030;-40
2022/01/02 02:28:34;;;;;;;16.52;5.80;;;;;;;;;;4994346;28;20431;-40
2022/01/02 02:31:01;;;;;;;15.93;6.18;;;;;;;;;;4992288;28;20089;-40
2022/01/02 02:33:26;;;;;;;20.95;6.82;;;;;;;;;;4982726;28;20102;-40
2022/01/02 02:35:53;;;;;;;15.10;6.63;;;;;;;;;;4974845;28;20110;-39
2022/01/02 02:38:20;;;;;;;13.80;6.97;;;;;;;;;;4974217;28;20106;-41
2022/01/02 02:40:46;;;;;;;15.20;7.47;;;;;;;;;;4974291;28;20433;-41
2022/01/02 02:51:02;;;;;;;20.90;7.43;;;;;;;;;;4973971;28;20031;-39
2022/01/02 02:53:28;;;;;;;18.90;7.93;;;;;;;;;;4985024;28;20022;-41
2022/01/02 02:55:57;;;;;;;11.25;6.45;;;;;;;;;;4973859;28;20027;-40
2022/01/02 03:00:55;;;;;;;22.13;8.23;;;;;;;;;;4986903;28;20358;-40
2022/01/02 03:03:22;;;;;;;21.40;8.43;;;;;;;;;;4973997;28;20035;-41
2022/01/02 03:05:48;;;;;;;16.80;7.55;;;;;;;;;;4970312;28;20034;-41
2022/01/02 03:08:14;;;;;;;19.27;8.75;;;;;;;;;;4970492;28;20058;-40
2022/01/02 03:10:40;;;;;;;17.58;8.82;;;;;;;;;;4962963;28;20065;-40
2022/01/02 03:13:06;;;;;;;15.32;8.43;;;;;;;;;;4981396;28;20054;-39
2022/01/02 03:15:32;;;;;;;22.60;9.35;;;;;;;;;;4980233;28;20462;-38
2022/01/02 03:17:58;;;;;;;17.58;9.32;;;;;;;;;;4973800;28;20035;-40
2022/01/02 03:20:24;;;;;;;15.50;9.00;;;;;;;;;;4973311;28;20038;-41
2022/01/02 03:22:50;;;;;;;18.13;7.93;;;;;;;;;;4972711;28;20023;-42
2022/01/02 03:25:17;;;;;;;21.27;9.70;;;;;;;;;;4966178;28;20582;-40
2022/01/02 03:27:43;;;;;;;17.40;8.73;;;;;;;;;;4973885;28;20418;-39
2022/01/02 03:30:10;;;;;;;16.98;9.35;;;;;;;;;;4973723;28;20030;-42
2022/01/02 03:32:36;;;;;;;19.50;8.73;;;;;;;;;;4977146;28;20065;-41
2022/01/02 03:35:03;;;;;;;14.70;8.23;;;;;;;;;;4978857;28;20481;-41
2022/01/02 03:37:32;;;;;;;16.73;9.18;;;;;;;;;;4973423;28;20029;-41
2022/01/02 03:39:58;;;;;;;20.75;9.48;;;;;;;;;;4973050;28;20106;-40
2022/01/02 03:42:24;;;;;;;23.20;10.85;;;;;;;;;;4973180;28;20502;-39
2022/01/02 03:44:50;;;;;;;24.38;9.82;;;;;;;;;;4977891;28;20050;-40
2022/01/02 03:47:16;;;;;;;17.80;9.00;;;;;;;;;;4991058;28;20038;-39
2022/01/02 03:49:42;;;;;;;14.80;10.00;;;;;;;;;;4985788;28;20054;-41
2022/01/02 03:52:09;;;;;;;17.33;9.65;;;;;;;;;;4991594;28;20062;-42
2022/01/02 03:54:35;;;;;;;15.85;10.30;;;;;;;;;;4985262;28;20119;-40
2022/01/02 03:57:01;;;;;;;21.67;9.38;;;;;;;;;;4988101;28;20105;-40
2022/01/02 03:59:27;;;;;;;21.50;9.90;;;;;;;;;;4973153;28;20578;-40
2022/01/02 04:01:53;;;;;;;21.85;10.10;;;;;;;;;;4973126;28;20069;-40
2022/01/02 04:04:19;;;;;;;23.10;10.10;;;;;;;;;;4974025;28;20092;-41
2022/01/02 04:06:45;;;;;;;19.77;10.05;;;;;;;;;;4974868;28;20050;-43
2022/01/02 04:09:11;;;;;;;21.02;9.98;;;;;;;;;;4973472;28;20073;-43
2022/01/02 04:11:37;;;;;;;24.02;10.38;;;;;;;;;;4976940;28;20034;-41
2022/01/02 04:14:03;;;;;;;18.95;9.65;;;;;;;;;;4980117;28;20038;-40
2022/01/02 04:16:29;;;;;;;18.95;9.45;;;;;;;;;;4972652;28;20560;-40
2022/01/02 04:18:55;;;;;;;16.23;9.95;;;;;;;;;;4972161;28;20031;-39
2022/01/02 04:21:21;;;;;;;18.20;10.73;;;;;;;;;;4972482;28;20663;-40
2022/01/02 04:23:47;;;;;;;21.33;10.68;;;;;;;;;;4972605;28;20050;-40
2022/01/02 04:26:13;;;;;;;26.73;11.10;;;;;;;;;;4972837;28;20117;-40
2022/01/02 04:28:39;;;;;;;17.02;10.43;;;;;;;;;;4972563;28;20450;-41
2022/01/02 04:31:05;;;;;;;17.67;9.65;;;;;;;;;;4972252;28;20058;-40
2022/01/02 04:33:31;;;;;;;18.75;10.35;;;;;;;;;;4980380;28;20042;-41
2022/01/02 04:35:57;;;;;;;19.52;11.00;;;;;;;;;;4972337;28;20462;-42
2022/01/02 04:38:24;;;;;;;31.50;13.48;;;;;;;;;;4981954;28;20039;-40
2022/01/02 04:40:50;;;;;;;27.45;11.85;;;;;;;;;;4972103;28;20015;-40
2022/01/02 04:43:16;;;;;;;26.52;10.73;;;;;;;;;;4981787;28;20030;-40
2022/01/02 04:45:42;;;;;;;24.00;12.02;;;;;;;;;;4992203;28;20053;-41
2022/01/02 04:48:08;;;;;;;25.80;11.65;;;;;;;;;;4974487;28;20089;-43
2022/01/02 04:50:34;;;;;;;23.27;11.75;;;;;;;;;;4972194;28;20031;-41
2022/01/02 04:53:00;;;;;;;26.92;11.55;;;;;;;;;;4976901;28;20058;-42
2022/01/02 04:55:26;;;;;;;20.15;11.30;;;;;;;;;;4981757;28;20478;-42
2022/01/02 04:57:52;;;;;;;23.63;11.63;;;;;;;;;;4972060;28;20031;-42
2022/01/02 05:00:18;;;;;;;24.25;12.68;;;;;;;;;;4972289;28;20035;-40
2022/01/02 05:02:44;;;;;;;21.25;12.02;;;;;;;;;;4971957;28;20053;-41
2022/01/02 05:05:10;;;;;;;23.23;13.80;;;;;;;;;;4963864;28;20037;-40
2022/01/02 05:07:36;;;;;;;24.15;12.70;;;;;;;;;;4972330;28;20063;-39
2022/01/02 05:10:02;;;;;;;26.50;11.82;;;;;;;;;;4972229;28;20061;-41
2022/01/02 05:12:28;;;;;;;25.23;12.65;;;;;;;;;;4973870;28;20031;-40
2022/01/02 05:14:54;;;;;;;29.85;13.20;;;;;;;;;;4982414;28;20034;-42
2022/01/02 05:17:20;;;;;;;23.73;12.90;;;;;;;;;;4974084;28;20034;-43
2022/01/02 05:19:46;;;;;;;27.77;12.23;;;;;;;;;;4976183;28;20118;-41
2022/01/02 05:22:12;;;;;;;26.02;12.15;;;;;;;;;;4976519;28;20607;-40
2022/01/02 05:24:38;;;;;;;31.10;11.88;;;;;;;;;;4995734;28;20034;-40
2022/01/02 05:27:04;;;;;;;24.80;12.48;;;;;;;;;;4987022;28;20018;-40
2022/01/02 05:29:30;;;;;;;24.38;11.40;;;;;;;;;;4983239;28;20057;-40
2022/01/02 05:31:56;;;;;;;25.35;11.23;;;;;;;;;;4975398;28;20031;-40
2022/01/02 05:34:22;;;;;;;20.40;11.18;;;;;;;;;;4985424;28;20607;-43
2022/01/02 05:36:51;;;;;;;20.73;10.95;;;;;;;;;;4979215;28;20118;-42
2022/01/02 05:39:18;;;;;;;21.10;10.93;;;;;;;;;;5014839;23;20488;-41
2022/01/02 05:41:44;;;;;;;22.27;11.35;;;;;;;;;;5013896;28;20029;-41
2022/01/02 05:44:10;;;;;;;24.42;10.48;;;;;;;;;;5013890;28;20444;-41
2022/01/02 05:46:36;;;;;;;25.10;11.25;;;;;;;;;;5014200;28;20488;-43
2022/01/02 05:49:03;;;;;;;27.92;11.55;;;;;;;;;;5006167;28;20030;-41
2022/01/02 05:51:28;;;;;;;23.00;11.52;;;;;;;;;;5012391;28;20025;-41
2022/01/02 05:53:54;;;;;;;24.00;10.65;;;;;;;;;;4996337;28;20018;-43
2022/01/02 05:56:20;;;;;;;24.63;9.65;;;;;;;;;;4997355;28;20037;-41
2022/01/02 05:58:46;;;;;;;26.27;9.32;;;;;;;;;;4994121;28;20105;-41
2022/01/02 06:01:12;;;;;;;19.45;9.13;;;;;;;;;;5007490;28;20111;-41
2022/01/02 06:03:38;;;;;;;24.65;9.48;;;;;;;;;;4997480;28;20041;-42
2022/01/02 06:06:05;;;;;;;20.90;9.65;;;;;;;;;;5011013;28;20029;-41
2022/01/02 06:08:31;;;;;;;23.98;9.93;;;;;;;;;;5004244;28;20034;-41
2022/01/02 06:10:57;;;;;;;18.67;10.45;;;;;;;;;;5012683;28;20101;-41
2022/01/02 06:13:23;;;;;;;21.42;9.70;;;;;;;;;;4996847;28;20124;-41
2022/01/02 06:15:49;;;;;;;21.90;10.52;;;;;;;;;;4994083;28;20065;-41
2022/01/02 06:18:15;;;;;;;22.63;9.60;;;;;;;;;;4993756;28;20029;-41
2022/01/02 06:20:41;;;;;;;27.88;10.38;;;;;;;;;;4993870;28;20030;-41
2022/01/02 06:23:07;;;;;;;22.00;10.18;;;;;;;;;;4993891;28;20038;-41
2022/01/02 06:25:33;;;;;;;30.20;13.10;;;;;;;;;;4993574;28;20023;-41
2022/01/02 06:27:59;;;;;;;17.40;10.38;;;;;;;;;;4993367;28;20022;-41
2022/01/02 06:30:26;;;;;;;23.73;10.38;;;;;;;;;;4993526;28;20566;-43
2022/01/02 06:32:55;;;;;;;24.25;10.35;;;;;;;;;;5004658;28;20105;-43
2022/01/02 06:35:32;;;;;;;23.60;10.10;;;;;;;;;;5013152;28;20129;-43
2022/01/02 06:37:59;;;;;;;29.25;11.27;;;;;;;;;;5012829;28;20116;-44
2022/01/02 06:40:26;;;;;;;26.67;9.93;;;;;;;;;;5012947;28;20026;-43
2022/01/02 06:42:52;;;;;;;25.10;11.13;;;;;;;;;;5003012;28;20595;-42
2022/01/02 06:45:18;;;;;;;22.88;9.75;;;;;;;;;;4997079;28;20105;-42
2022/01/02 06:47:44;;;;;;;20.15;10.75;;;;;;;;;;5007213;28;20022;-42
2022/01/02 06:50:14;;;;;;;25.30;11.00;;;;;;;;;;4994852;28;20053;-41
2022/01/02 06:52:40;;;;;;;23.38;10.23;;;;;;;;;;4992940;28;20374;-41
2022/01/02 06:55:06;;;;;;;22.38;9.77;;;;;;;;;;4996020;28;20067;-42
2022/01/02 06:57:32;;;;;;;25.17;9.80;;;;;;;;;;5000940;28;20116;-42
2022/01/02 06:59:58;;;;;;;24.40;9.18;;;;;;;;;;4995662;28;20062;-42
2022/01/02 07:02:24;;;;;;;24.95;10.07;;;;;;;;;;5010473;28;20025;-41
2022/01/02 07:04:50;;;;;;;22.80;9.55;;;;;;;;;;5011576;28;20022;-41
2022/01/02 07:07:16;;;;;;;30.30;9.95;;;;;;;;;;5005730;28;20030;-42
2022/01/02 07:09:42;;;;;;;24.85;8.35;;;;;;;;;;5003958;28;20048;-42
2022/01/02 07:12:08;;;;;;;23.35;8.50;;;;;;;;;;5009686;28;20034;-42
2022/01/02 07:14:34;;;;;;;18.35;8.45;;;;;;;;;;4999910;28;20037;-42
2022/01/02 07:17:01;;;;;;;28.95;9.45;;;;;;;;;;4994139;28;20027;-42
2022/01/02 07:19:27;;;;;;;21.95;9.13;;;;;;;;;;5001688;28;20425;-42
2022/01/02 07:21:53;;;;;;;27.85;8.40;;;;;;;;;;5010302;28;20453;-42
2022/01/02 07:24:20;;;;;;;20.73;7.90;;;;;;;;;;5009865;28;20026;-42
2022/01/02 07:26:46;;;;;;;22.17;8.55;;;;;;;;;;5002927;28;20043;-44
2022/01/02 07:29:15;;;;;;;18.70;7.82;;;;;;;;;;4993756;28;20042;-42
2022/01/02 07:31:41;;;;;;;20.55;8.60;;;;;;;;;;5009480;28;20026;-41
2022/01/02 07:34:07;;;;;;;27.38;9.85;;;;;;;;;;4992934;28;20030;-42
2022/01/02 07:36:33;;;;;;;14.55;7.60;;;;;;;;;;4993568;28;20057;-42
2022/01/02 07:38:59;;;;;;;23.58;8.20;;;;;;;;;;4993082;28;20057;-44
2022/01/02 07:41:25;;;;;;;18.33;7.70;;;;;;;;;;4991556;28;20468;-43
2022/01/02 07:43:51;;;;;;;22.83;9.02;;;;;;;;;;4993482;28;20058;-43
2022/01/02 07:46:17;;;;;;;19.05;7.80;;;;;;;;;;5001285;28;20076;-43
2022/01/02 07:48:45;;;;;;;29.33;9.13;;;;;;;;;;5007369;28;20056;-44
2022/01/02 07:51:11;;;;;;;19.67;8.25;;;;;;;;;;4993335;28;20026;-42
2022/01/02 07:53:37;;;;;;;18.63;8.13;;;;;;;;;;4993190;28;20035;-42
2022/01/02 07:56:03;;;;;;;39.70;8.02;;;;;;;;;;4995471;28;20478;-41
2022/01/02 07:58:29;;;;;;;21.17;8.55;;;;;;;;;;4992211;28;20614;-43
2022/01/02 08:00:55;;;;;;;26.25;8.77;;;;;;;;;;4993030;28;20061;-43
2022/01/02 08:03:20;;;;;;;23.27;8.73;;;;;;;;;;5009364;28;20126;-42
2022/01/02 08:05:47;;;;;;;18.92;6.82;;;;;;;;;;4993204;28;20027;-42
2022/01/02 08:08:13;;;;;;;19.80;7.97;;;;;;;;;;4991823;28;20034;-41
2022/01/02 08:10:39;;;;;;;19.27;6.75;;;;;;;;;;4991893;28;20026;-44
2022/01/02 08:13:05;;;;;;;18.60;6.63;;;;;;;;;;4991685;28;20022;-41
2022/01/02 08:15:32;;;;;;;17.25;6.57;;;;;;;;;;4987691;28;20086;-41
2022/01/02 08:17:58;;;;;;;19.48;6.82;;;;;;;;;;5003551;28;20022;-42
2022/01/02 08:20:25;;;;;;;15.70;7.18;;;;;;;;;;5000161;28;20058;-41
2022/01/02 08:22:51;;;;;;;12.05;5.65;;;;;;;;;;4991808;28;20058;-43
2022/01/02 08:25:17;;;;;;;27.25;7.05;;;;;;;;;;4995373;28;20346;-43
2022/01/02 08:27:43;;;;;;;18.88;6.28;;;;;;;;;;4996557;28;20094;-42
2022/01/02 08:30:09;;;;;;;18.92;6.13;;;;;;;;;;4997354;28;20096;-41
2022/01/02 08:32:36;;;;;;;19.17;7.20;;;;;;;;;;4992217;28;20023;-41
2022/01/02 08:35:02;;;;;;;14.70;6.25;;;;;;;;;;4990418;28;20026;-41
2022/01/02 08:37:28;;;;;;;17.73;5.63;;;;;;;;;;4989929;28;20070;-42
2022/01/02 08:39:54;;;;;;;13.95;6.18;;;;;;;;;;5003798;28;20078;-41
2022/01/02 08:42:20;;;;;;;17.17;6.03;;;;;;;;;;4990515;28;20026;-42
2022/01/02 08:44:46;;;;;;;16.42;6.57;;;;;;;;;;4990321;28;20023;-43
2022/01/02 08:47:12;;;;;;;20.35;6.00;;;;;;;;;;4992364;28;20049;-42
2022/01/02 08:49:39;;;;;;;17.73;6.22;;;;;;;;;;5007291;28;20068;-42
2022/01/02 08:52:05;;;;;;;12.80;5.57;;;;;;;;;;4994607;28;20034;-41
2022/01/02 08:54:31;;;;;;;17.63;5.55;;;;;;;;;;5003043;28;20385;-41
2022/01/02 08:56:57;;;;;;;13.68;5.68;;;;;;;;;;5007907;28;20030;-42
2022/01/02 08:59:27;;;;;;;11.10;5.20;;;;;;;;;;4997790;28;20528;-42
2022/01/02 09:01:53;;;;;;;18.92;6.13;;;;;;;;;;4985482;28;20033;-41
2022/01/02 09:04:19;;;;;;;20.08;5.50;;;;;;;;;;5006134;28;20038;-42
2022/01/02 09:06:45;;;;;;;19.23;5.63;;;;;;;;;;4993666;28;20034;-42
2022/01/02 09:09:11;;;;;;;21.33;5.80;;;;;;;;;;4993767;28;20054;-41
2022/01/02 09:11:37;;;;;;;16.55;5.32;;;;;;;;;;4994103;28;20122;-43
2022/01/02 09:14:03;;;;;;;18.50;5.65;;;;;;;;;;4993789;28;20042;-42
2022/01/02 09:16:34;;;;;;;18.80;5.60;;;;;;;;;;4993682;28;20058;-42
2022/01/02 09:19:00;;;;;;;22.08;6.53;;;;;;;;;;4997125;28;20648;-41
2022/01/02 09:21:26;;;;;;;15.63;5.20;;;;;;;;;;4994158;28;20044;-42
2022/01/02 09:23:52;;;;;;;17.80;5.80;;;;;;;;;;4995573;28;20022;-43
2022/01/02 09:26:18;;;;;;;15.75;5.93;;;;;;;;;;5007899;28;20468;-44
2022/01/02 09:28:44;;;;;;;16.20;5.45;;;;;;;;;;5001635;28;20369;-44
2022/01/02 09:31:10;;;;;;;14.95;5.78;;;;;;;;;;4997862;28;20039;-43
2022/01/02 09:33:36;;;;;;;15.00;5.40;;;;;;;;;;4994763;28;20058;-42
2022/01/02 09:36:02;;;;;;;14.68;4.85;;;;;;;;;;5001074;28;20632;-43
2022/01/02 09:38:28;;;;;;;17.33;5.25;;;;;;;;;;4995212;28;20030;-40
2022/01/02 09:40:54;;;;;;;11.52;5.53;;;;;;;;;;4995802;28;20022;-40
2022/01/02 09:43:20;;;;;;;20.25;5.30;;;;;;;;;;4995149;28;20541;-40
2022/01/02 09:45:47;;;;;;;17.23;5.68;;;;;;;;;;4994581;28;20101;-40
2022/01/02 09:48:13;;;;;;;19.75;6.38;;;;;;;;;;4994189;28;20180;-40
2022/01/02 09:50:39;;;;;;;17.67;5.75;;;;;;;;;;4994326;28;20022;-40
2022/01/02 09:53:06;;;;;;;15.00;5.63;;;;;;;;;;5007975;28;20155;-40
2022/01/02 09:55:32;;;;;;;21.42;6.53;;;;;;;;;;5002735;28;20065;-41
2022/01/02 09:57:59;;;;;;;9.32;4.65;;;;;;;;;;5004396;28;20073;-39
2022/01/02 10:00:26;;;;;;;12.27;4.38;;;;;;;;;;5013023;28;20025;-41
2022/01/02 10:02:56;;;;;;;15.55;5.43;;;;;;;;;;4988637;28;20045;-40
2022/01/02 10:05:24;;;;;;;19.65;5.32;;;;;;;;;;4993845;28;20110;-40
2022/01/02 10:07:50;;;;;;;21.25;5.10;;;;;;;;;;4994164;28;20227;-40
2022/01/02 10:10:16;;;;;;;15.85;4.20;;;;;;;;;;4994026;28;20462;-39
2022/01/02 10:12:42;;;;;;;18.65;4.28;;;;;;;;;;5009633;28;20026;-40
2022/01/02 10:15:08;;;;;;;14.18;4.97;;;;;;;;;;4996201;28;20085;-40
2022/01/02 10:17:50;;;;;;;16.80;5.38;;;;;;;;;;5005962;28;20026;-42
2022/01/02 10:20:16;;;;;;;16.05;5.75;;;;;;;;;;4993439;28;20362;-40
2022/01/02 10:23:01;;;;;;;12.43;5.35;;;;;;;;;;4995725;28;20152;-40
2022/01/02 10:25:42;;;;;;;9.15;4.68;;;;;;;;;;4999515;28;20552;-41
2022/01/02 10:28:18;;;;;;;17.92;5.65;;;;;;;;;;4995025;28;20022;-40
2022/01/02 10:30:44;;;;;;;;;;;;;;;;;;4993768;28;20022;-40
2022/01/02 10:33:10;;;;;;;;;;;;;;;;;;5003134;28;19918;-40
2022/01/02 10:35:36;;;;;;;;;;;;;;;;;;4994218;28;19960;-41
2022/01/02 10:38:03;;;;;;;10.93;4.70;;;;;;;;;;4993834;28;19937;-40
2022/01/02 10:40:38;;;;;;;12.15;5.10;;;;;;;;;;4994846;28;20109;-40
2022/01/02 10:43:06;;;;;;;12.93;4.82;;;;;;;;;;4992414;28;20025;-40
2022/01/02 10:45:37;;;;;;;12.30;5.40;;;;;;;;;;5005631;28;20026;-40
2022/01/02 10:48:06;;;;;;;12.43;5.07;;;;;;;;;;4996645;28;20045;-40
2022/01/02 10:50:32;;;;;;;16.70;4.78;;;;;;;;;;4992786;28;20031;-40
2022/01/02 10:52:58;;;;;;;19.65;5.28;;;;;;;;;;4995813;28;20156;-40
2022/01/02 10:55:25;;;;;;;7.55;4.55;;;;;;;;;;4992315;28;20034;-40
2022/01/02 10:57:53;;;;;;;18.67;5.00;;;;;;;;;;4997692;28;20037;-40
2022/01/02 11:00:20;;;;;;;17.13;4.63;;;;;;;;;;4989650;28;20031;-39
2022/01/02 11:02:47;;;;;;;11.02;3.85;;;;;;;;;;4977674;28;20027;-41
2022/01/02 11:05:14;;;;;;;8.13;4.75;;;;;;;;;;4991483;28;20133;-39
2022/01/02 11:07:40;;;;;;;12.73;4.50;;;;;;;;;;4991481;28;20015;-40
2022/01/02 11:10:07;;;;;;;20.73;5.20;;;;;;;;;;4991405;28;20026;-40
2022/01/02 11:12:33;;;;;;;11.02;4.47;;;;;;;;;;4991160;28;20152;-39
2022/01/02 11:15:00;;;;;;;11.48;4.03;;;;;;;;;;4990754;28;20031;-39
2022/01/02 11:17:26;;;;;;;13.25;4.55;;;;;;;;;;4993207;28;20033;-40
2022/01/02 11:19:52;;;;;;;12.13;4.63;;;;;;;;;;4993588;28;20437;-40
2022/01/02 11:22:24;;;;;;;17.52;5.03;;;;;;;;;;4991797;28;20114;-40
2022/01/02 11:25:16;;;;;;;18.55;6.05;;;;;;;;;;4991595;28;20049;-39
2022/01/02 11:27:45;;;;;;;15.15;7.00;;;;;;;;;;4982459;28;20068;-42
2022/01/02 11:30:29;;;;;;;13.35;4.05;;;;;;;;;;4991569;28;20058;-39
2022/01/02 11:33:04;;;;;;;12.65;4.68;;;;;;;;;;4990909;28;20081;-42
2022/01/02 11:35:31;;;;;;;22.08;4.70;;;;;;;;;;4991227;28;20049;-41
2022/01/02 11:38:03;;;;;;;14.18;4.10;;;;;;;;;;4991123;28;20038;-41
2022/01/02 11:40:45;;;;;;;14.38;5.10;;;;;;;;;;5002687;22;20062;-36
2022/01/02 11:43:31;;;;;;;13.82;5.15;;;;;;;;;;4978423;28;20041;-37
2022/01/02 11:45:57;;;;;;;;;;;;;;;;;;4991441;28;20098;-36
2022/01/02 11:48:23;;;;;;;;;;;;;;;;;;4991213;28;20012;-36
2022/01/02 11:50:49;;;;;;;10.98;4.25;;;;;;;;;;4971364;28;20488;-36
2022/01/02 11:53:23;;;;;;;13.30;4.47;;;;;;;;;;4970485;28;20037;-38
2022/01/02 11:55:49;;;;;;;11.13;4.32;;;;;;;;;;4963763;28;20093;-37
2022/01/02 11:58:34;;;;;;;17.10;4.60;;;;;;;;;;4958005;28;20058;-36
2022/01/02 12:01:00;;;;;;;14.23;4.30;;;;;;;;;;4969652;28;20092;-36
2022/01/02 12:03:41;;;;;;;14.02;4.97;;;;;;;;;;4970631;28;20544;-37
2022/01/02 12:06:19;;;;;;;7.88;3.85;;;;;;;;;;4970719;28;20426;-36
2022/01/02 12:08:46;;;;;;;21.15;4.85;;;;;;;;;;4970241;28;20023;-36
2022/01/02 12:11:30;;;;;;;15.75;5.63;;;;;;;;;;4970595;28;20023;-36
2022/01/02 12:14:05;;;;;;;19.95;4.07;;;;;;;;;;4968276;28;20027;-36
2022/01/02 12:16:36;;;;;;;15.27;4.45;;;;;;;;;;4962606;28;20026;-36
2022/01/02 12:19:03;;;;;;;15.18;4.10;;;;;;;;;;4973029;28;20027;-36
2022/01/02 12:21:30;;;;;;;15.15;5.70;;;;;;;;;;4970637;28;20417;-36
2022/01/02 12:23:57;;;;;;;16.52;3.67;;;;;;;;;;4969984;28;20097;-37
2022/01/02 12:26:30;;;;;;;19.58;5.55;;;;;;;;;;4968509;28;20030;-36
2022/01/02 12:28:58;;;;;;;25.15;10.77;;;;;;;;;;4976350;28;20033;-36
2022/01/02 12:31:28;;;;;;;27.73;11.63;;;;;;;;;;4965286;28;20043;-36
2022/01/02 12:33:54;;;;;;;29.45;11.35;;;;;;;;;;4971095;28;20468;-36
2022/01/02 12:36:21;;;;;;;17.75;5.65;;;;;;;;;;4974163;28;20034;-37
2022/01/02 12:38:47;;;;;;;9.93;4.93;;;;;;;;;;4971192;28;20031;-36
2022/01/02 12:41:14;;;;;;;20.92;4.80;;;;;;;;;;4972126;28;20089;-36
2022/01/02 12:43:41;;;;;;;12.70;3.63;;;;;;;;;;4970856;28;20030;-36
2022/01/02 12:46:07;;;;;;;10.60;3.72;;;;;;;;;;4972204;28;20038;-37
2022/01/02 12:48:34;;;;;;;15.32;4.18;;;;;;;;;;4972447;28;20102;-36
2022/01/02 12:51:14;;;;;;;10.48;3.58;;;;;;;;;;4971606;28;20029;-36
2022/01/02 12:53:40;;;;;;;9.85;3.92;;;;;;;;;;4965473;28;20420;-36
2022/01/02 12:56:06;;;;;;;8.95;3.55;;;;;;;;;;4969728;28;20051;-36
2022/01/02 12:58:34;;;;;;;11.27;3.80;;;;;;;;;;4970683;28;20055;-36
2022/01/02 13:01:06;;;;;;;11.85;4.03;;;;;;;;;;4970502;28;20027;-37
2022/01/02 13:03:32;;;;;;;16.63;4.47;;;;;;;;;;4971250;28;20033;-37
2022/01/02 13:05:58;;;;;;;16.73;4.72;;;;;;;;;;4971508;28;20486;-36
2022/01/02 13:08:27;;;;;;;13.02;4.63;;;;;;;;;;4972004;28;20417;-37
2022/01/02 13:10:53;;;;;;;14.95;4.63;;;;;;;;;;4972071;28;20399;-36
2022/01/02 13:13:29;;;;;;;12.77;3.78;;;;;;;;;;4971238;28;20027;-36
2022/01/02 13:15:55;;;;;;;13.00;4.40;;;;;;;;;;4954169;28;20033;-37
2022/01/02 13:18:21;;;;;;;14.02;3.80;;;;;;;;;;4979304;28;20047;-36
